Time;durP1;ratioP1;P1;durP2;ratioP2;P2;SDS_P1;SDS_P2;PMS_P1;PMS_P2;Temp;Humidity;BMP_temperature;BMP_pressure;BME280_temperature;BME280_humidity;BME280_pressure;Samples;Min_cycle;Max_cycle;Signal;HPM_P1;HPM_P2
2023/12/29 00:01:55;;;;;;;22.70;21.40;;;;;;;-1.57;100.00;101716.44;4957812;28;20055;-56
2023/12/29 00:04:22;;;;;;;21.45;20.05;;;;;;;-1.70;100.00;101711.19;4958187;28;20106;-57
2023/12/29 00:06:49;;;;;;;20.55;19.25;;;;;;;-1.59;100.00;101715.69;4969288;28;20449;-56
2023/12/29 00:09:16;;;;;;;21.90;20.60;;;;;;;-1.45;100.00;101713.00;4963307;28;20050;-56
2023/12/29 00:11:42;;;;;;;22.80;21.40;;;;;;;-1.81;100.00;101724.09;4951380;28;20592;-56
2023/12/29 00:14:09;;;;;;;24.33;22.63;;;;;;;-1.78;100.00;101717.84;4956768;28;20047;-56
2023/12/29 00:16:37;;;;;;;27.23;25.50;;;;;;;-1.63;100.00;101715.06;4957350;28;20058;-56
2023/12/29 00:19:06;;;;;;;22.05;20.65;;;;;;;-1.77;100.00;101715.13;4957658;28;20126;-56
2023/12/29 00:21:33;;;;;;;24.80;21.60;;;;;;;-1.74;100.00;101714.94;4959105;28;20055;-56
2023/12/29 00:23:59;;;;;;;22.13;20.75;;;;;;;-1.63;100.00;101714.22;4958791;28;20110;-56
2023/12/29 00:26:29;;;;;;;24.27;22.52;;;;;;;-1.68;100.00;101703.28;4962323;28;20457;-57
2023/12/29 00:28:56;;;;;;;22.88;21.25;;;;;;;-1.74;100.00;101701.91;4961617;28;20055;-57
2023/12/29 00:31:23;;;;;;;23.30;21.77;;;;;;;-1.85;100.00;101696.56;4967298;28;20342;-56
2023/12/29 00:33:51;;;;;;;23.85;22.05;;;;;;;-1.83;100.00;101705.13;4962645;28;20051;-57
2023/12/29 00:36:21;;;;;;;24.52;22.67;;;;;;;-1.77;100.00;101696.91;4958895;28;20613;-56
2023/12/29 00:38:48;;;;;;;25.35;23.70;;;;;;;-1.87;100.00;101708.88;4958620;28;20062;-56
2023/12/29 00:41:15;;;;;;;21.98;20.58;;;;;;;-1.74;100.00;101709.72;4961525;28;20069;-56
2023/12/29 00:43:41;;;;;;;23.70;22.20;;;;;;;-1.55;100.00;101714.53;4958295;28;20060;-57
2023/12/29 00:46:09;;;;;;;24.85;23.15;;;;;;;-1.68;100.00;101713.69;4959494;28;20475;-56
2023/12/29 00:48:36;;;;;;;23.42;21.80;;;;;;;-1.75;100.00;101717.66;4961946;28;20047;-56
2023/12/29 00:51:04;;;;;;;25.75;24.25;;;;;;;-1.57;100.00;101716.44;4957393;28;20500;-56
2023/12/29 00:53:33;;;;;;;27.33;25.20;;;;;;;-1.52;100.00;101716.94;4963044;28;20040;-56
2023/12/29 00:56:01;;;;;;;24.90;22.92;;;;;;;-1.67;100.00;101721.38;4961598;28;20062;-56
2023/12/29 00:58:27;;;;;;;24.67;23.08;;;;;;;-1.75;100.00;101722.88;4964421;28;20078;-56
2023/12/29 01:00:54;;;;;;;24.02;22.52;;;;;;;-1.69;100.00;101727.66;4958381;28;20055;-56
2023/12/29 01:03:21;;;;;;;25.30;23.70;;;;;;;-1.80;100.00;101730.13;4959216;28;20062;-57
2023/12/29 01:05:48;;;;;;;21.98;20.55;;;;;;;-1.75;100.00;101723.69;4958782;28;20046;-59
2023/12/29 01:08:15;;;;;;;23.70;22.02;;;;;;;-1.87;100.00;101721.91;4956663;28;20110;-58
2023/12/29 01:10:43;;;;;;;26.27;24.15;;;;;;;-1.97;100.00;101726.84;4956178;28;20058;-56
2023/12/29 01:13:10;;;;;;;27.13;25.05;;;;;;;-2.09;100.00;101722.44;4953694;28;20062;-56
2023/12/29 01:15:37;;;;;;;26.58;24.55;;;;;;;-2.08;100.00;101716.31;4957968;28;20055;-56
2023/12/29 01:18:07;;;;;;;31.88;28.77;;;;;;;-2.14;100.00;101720.16;4955789;28;20051;-58
2023/12/29 01:20:34;;;;;;;30.10;27.80;;;;;;;-2.05;100.00;101710.91;4956571;28;20061;-63
2023/12/29 01:23:01;;;;;;;29.80;27.23;;;;;;;-2.22;100.00;101717.19;4957382;28;20051;-63
2023/12/29 01:25:28;;;;;;;33.03;28.05;;;;;;;-2.00;100.00;101713.19;4963044;28;20058;-63
2023/12/29 01:27:56;;;;;;;27.40;24.88;;;;;;;-2.10;100.00;101708.59;4957936;28;20062;-62
2023/12/29 01:30:24;;;;;;;27.73;25.83;;;;;;;-2.48;100.00;101708.47;4953344;28;20062;-63
2023/12/29 01:32:51;;;;;;;29.58;27.10;;;;;;;-2.23;100.00;101702.53;4958787;28;20493;-56
2023/12/29 01:35:18;;;;;;;29.58;26.85;;;;;;;-2.43;100.00;101708.16;4957935;28;20547;-57
2023/12/29 01:37:44;;;;;;;24.48;22.77;;;;;;;-2.32;100.00;101710.91;4957888;28;20524;-57
2023/12/29 01:40:12;;;;;;;25.30;23.13;;;;;;;-2.14;100.00;101696.72;4959696;28;20043;-61
2023/12/29 01:42:39;;;;;;;24.25;21.77;;;;;;;-2.11;100.00;101706.94;4956624;28;20065;-62
2023/12/29 01:45:21;;;;;;;22.90;21.40;;;;;;;-2.02;100.00;101702.06;4955042;28;20050;-62
2023/12/29 01:47:48;;;;;;;24.48;22.52;;;;;;;-1.90;100.00;101709.06;4963798;28;20106;-57
2023/12/29 01:50:15;;;;;;;22.23;20.73;;;;;;;-2.05;100.00;101697.91;4957642;28;20048;-57
2023/12/29 01:52:44;;;;;;;21.92;20.42;;;;;;;-1.75;100.00;101699.41;4956452;28;20444;-56
2023/12/29 01:55:16;;;;;;;22.83;21.23;;;;;;;-1.94;100.00;101698.00;4960412;28;20523;-57
2023/12/29 01:57:43;;;;;;;20.83;19.42;;;;;;;-1.98;100.00;101688.72;4963337;28;20524;-57
2023/12/29 02:00:14;;;;;;;22.30;20.88;;;;;;;-2.17;100.00;101686.50;4959179;28;20051;-62
2023/12/29 02:02:41;;;;;;;25.45;23.50;;;;;;;-1.91;100.00;101682.19;4954369;28;20055;-57
2023/12/29 02:05:08;;;;;;;24.42;22.08;;;;;;;-2.02;100.00;101682.06;4956025;28;20051;-56
2023/12/29 02:07:35;;;;;;;19.60;18.30;;;;;;;-2.00;100.00;101679.34;4957276;28;20055;-63
2023/12/29 02:10:02;;;;;;;21.90;20.30;;;;;;;-1.92;100.00;101680.50;4959068;28;20050;-56
2023/12/29 02:12:30;;;;;;;21.30;19.90;;;;;;;-1.88;100.00;101679.38;4954591;28;20146;-57
2023/12/29 02:14:57;;;;;;;25.55;21.50;;;;;;;-1.93;100.00;101678.84;4957016;28;20054;-56
2023/12/29 02:17:28;;;;;;;23.17;21.77;;;;;;;-2.11;100.00;101678.28;4958054;28;20465;-56
2023/12/29 02:19:56;;;;;;;21.90;20.60;;;;;;;-2.07;100.00;101677.16;4957162;28;20409;-56
2023/12/29 02:22:23;;;;;;;22.60;21.20;;;;;;;-2.10;100.00;101676.53;4958926;28;20696;-56
2023/12/29 02:24:52;;;;;;;21.58;20.17;;;;;;;-2.18;100.00;101674.44;4964352;28;20078;-57
2023/12/29 02:27:35;;;;;;;31.33;29.00;;;;;;;-2.03;100.00;101669.13;4959210;28;20073;-57
2023/12/29 02:30:11;;;;;;;21.38;19.88;;;;;;;-2.01;100.00;101667.28;4966546;28;20038;-57
2023/12/29 02:32:40;;;;;;;24.35;22.70;;;;;;;-2.23;100.00;101660.03;4969245;28;20517;-57
2023/12/29 02:35:09;;;;;;;23.27;21.73;;;;;;;-2.08;100.00;101659.03;4960418;28;20082;-56
2023/12/29 02:37:38;;;;;;;23.42;21.92;;;;;;;-2.15;100.00;101656.00;4962245;28;20047;-56
2023/12/29 02:40:08;;;;;;;21.70;20.40;;;;;;;-2.16;100.00;101650.88;4962413;28;20662;-57
2023/12/29 02:42:35;;;;;;;21.23;19.92;;;;;;;-1.96;100.00;101658.22;4955572;28;20061;-56
2023/12/29 02:45:02;;;;;;;24.95;22.55;;;;;;;-2.07;100.00;101658.94;4962005;28;20479;-56
2023/12/29 02:47:29;;;;;;;23.15;21.80;;;;;;;-1.96;100.00;101657.41;4963746;28;20062;-57
2023/12/29 02:49:56;;;;;;;23.88;22.38;;;;;;;-1.87;100.00;101646.38;4960321;28;20046;-57
2023/12/29 02:52:23;;;;;;;20.75;19.65;;;;;;;-1.81;100.00;101655.56;4960058;28;20047;-56
2023/12/29 02:54:50;;;;;;;21.65;20.45;;;;;;;-1.91;100.00;101642.28;4964263;28;20061;-57
2023/12/29 02:57:18;;;;;;;24.73;22.73;;;;;;;-1.80;100.00;101657.22;4959572;28;20530;-56
2023/12/29 02:59:45;;;;;;;25.73;24.02;;;;;;;-1.83;100.00;101647.00;4964384;28;20551;-56
2023/12/29 03:02:12;;;;;;;23.48;22.17;;;;;;;-2.11;100.00;101649.66;4960338;28;20054;-56
2023/12/29 03:04:39;;;;;;;22.17;20.77;;;;;;;-2.13;100.00;101643.72;4959012;28;20051;-57
2023/12/29 03:07:06;;;;;;;21.90;20.60;;;;;;;-2.25;100.00;101635.88;4960351;28;20511;-57
2023/12/29 03:09:32;;;;;;;22.67;21.45;;;;;;;-2.61;100.00;101639.91;4957943;28;20075;-56
2023/12/29 03:11:59;;;;;;;25.27;23.65;;;;;;;-2.42;100.00;101640.41;4967466;28;20054;-56
2023/12/29 03:14:27;;;;;;;21.73;20.40;;;;;;;-2.29;100.00;101637.03;4961319;28;20051;-56
2023/12/29 03:16:54;;;;;;;22.52;20.85;;;;;;;-2.51;100.00;101638.41;4961880;28;20051;-57
2023/12/29 03:19:21;;;;;;;22.48;20.98;;;;;;;-2.36;100.00;101632.22;4964296;28;20437;-56
2023/12/29 03:21:48;;;;;;;22.58;21.08;;;;;;;-2.42;100.00;101630.00;4955960;28;20059;-57
2023/12/29 03:24:15;;;;;;;24.65;22.90;;;;;;;-2.27;100.00;101629.94;4961231;28;20437;-57
2023/12/29 03:26:42;;;;;;;21.40;20.00;;;;;;;-2.37;100.00;101629.69;4968335;28;20051;-56
2023/12/29 03:29:09;;;;;;;21.67;20.27;;;;;;;-2.15;100.00;101626.53;4960486;28;20644;-57
2023/12/29 03:31:38;;;;;;;21.77;20.20;;;;;;;-2.06;100.00;101633.72;4963421;28;20063;-57
2023/12/29 03:34:05;;;;;;;22.73;21.27;;;;;;;-1.75;100.00;101624.72;4955519;28;20137;-57
2023/12/29 03:36:31;;;;;;;24.42;22.40;;;;;;;-2.11;100.00;101623.63;4959674;28;20521;-57
2023/12/29 03:38:58;;;;;;;21.85;20.52;;;;;;;-2.14;100.00;101626.44;4959819;28;20109;-57
2023/12/29 03:41:25;;;;;;;21.13;19.88;;;;;;;-2.39;100.00;101623.75;4963562;28;20425;-56
2023/12/29 03:43:52;;;;;;;20.58;19.23;;;;;;;-2.62;100.00;101627.84;4963994;28;20444;-57
2023/12/29 03:46:19;;;;;;;21.35;19.95;;;;;;;-2.38;100.00;101618.47;4954788;28;20514;-56
2023/12/29 03:48:48;;;;;;;20.45;19.15;;;;;;;-2.38;100.00;101615.84;4959863;28;20062;-57
2023/12/29 03:51:15;;;;;;;20.08;18.88;;;;;;;-2.34;100.00;101617.31;4959232;28;20063;-57
2023/12/29 03:53:42;;;;;;;19.80;18.50;;;;;;;-2.29;100.00;101622.25;4959929;28;20078;-56
2023/12/29 03:56:13;;;;;;;19.80;18.50;;;;;;;-2.29;100.00;101618.81;4962932;28;20436;-57
2023/12/29 03:58:40;;;;;;;27.92;25.95;;;;;;;-2.40;100.00;101616.88;4959980;28;20058;-57
2023/12/29 04:01:11;;;;;;;21.60;20.20;;;;;;;-2.44;100.00;101611.06;4959582;28;20414;-56
2023/12/29 04:03:38;;;;;;;21.30;19.80;;;;;;;-2.31;100.00;101616.28;4962831;28;20505;-57
2023/12/29 04:06:07;;;;;;;21.52;19.60;;;;;;;-2.49;100.00;101609.69;4959678;28;20445;-57
2023/12/29 04:08:33;;;;;;;21.42;20.13;;;;;;;-2.54;100.00;101608.22;4964533;28;20599;-56
2023/12/29 04:11:00;;;;;;;21.67;20.38;;;;;;;-2.37;100.00;101604.50;4957629;28;20051;-56
2023/12/29 04:13:27;;;;;;;20.67;19.58;;;;;;;-2.67;100.00;101609.94;4966459;28;20059;-56
2023/12/29 04:15:54;;;;;;;21.60;20.15;;;;;;;-2.46;100.00;101619.88;4958515;28;20055;-57
2023/12/29 04:18:22;;;;;;;21.45;20.15;;;;;;;-2.31;100.00;101606.72;4958592;28;20070;-57
2023/12/29 04:20:49;;;;;;;21.00;19.42;;;;;;;-2.36;100.00;101615.75;4961090;28;20058;-57
2023/12/29 04:23:17;;;;;;;20.88;19.48;;;;;;;-2.31;100.00;101624.91;4957353;28;20047;-57
2023/12/29 04:25:44;;;;;;;22.02;20.52;;;;;;;-2.10;100.00;101624.44;4962272;28;20053;-57
2023/12/29 04:28:11;;;;;;;20.42;19.23;;;;;;;-2.33;100.00;101621.59;4959106;28;20488;-56
2023/12/29 04:30:38;;;;;;;19.75;18.55;;;;;;;-2.40;100.00;101614.28;4958872;28;20347;-57
2023/12/29 04:33:05;;;;;;;19.27;18.08;;;;;;;-2.14;100.00;101613.41;4963660;28;20047;-57
2023/12/29 04:35:32;;;;;;;21.20;19.80;;;;;;;-1.96;100.00;101613.97;4959412;28;20058;-57
2023/12/29 04:37:59;;;;;;;24.00;21.85;;;;;;;-2.19;100.00;101625.06;4958911;28;20062;-56
2023/12/29 04:40:27;;;;;;;20.60;19.40;;;;;;;-2.28;100.00;101618.69;4964578;28;20073;-57
2023/12/29 04:42:54;;;;;;;22.05;20.67;;;;;;;-2.33;100.00;101613.81;4964468;28;20524;-57
2023/12/29 04:45:21;;;;;;;20.08;18.83;;;;;;;-2.25;100.00;101622.88;4959983;28;20085;-57
2023/12/29 04:47:47;;;;;;;23.33;21.92;;;;;;;-2.42;100.00;101614.41;4956644;28;20047;-57
2023/12/29 04:50:14;;;;;;;21.27;19.77;;;;;;;-2.64;100.00;101614.09;4959930;28;20102;-57
2023/12/29 04:52:41;;;;;;;22.13;20.27;;;;;;;-2.62;100.00;101612.25;4956527;28;20434;-56
2023/12/29 04:55:09;;;;;;;20.38;18.92;;;;;;;-2.74;100.00;101624.25;4960733;28;20054;-56
2023/12/29 04:57:37;;;;;;;20.00;18.65;;;;;;;-2.48;100.00;101622.59;4957752;28;20065;-57
2023/12/29 05:00:04;;;;;;;20.90;19.50;;;;;;;-2.39;100.00;101618.53;4956208;28;20055;-57
2023/12/29 05:02:31;;;;;;;21.48;19.83;;;;;;;-2.42;100.00;101611.81;4956852;28;20101;-57
2023/12/29 05:04:59;;;;;;;21.38;19.98;;;;;;;-2.73;100.00;101618.13;4961263;28;20061;-56
2023/12/29 05:07:26;;;;;;;23.83;22.13;;;;;;;-2.74;100.00;101602.63;4958310;28;20051;-57
2023/12/29 05:09:53;;;;;;;22.63;20.73;;;;;;;-2.74;100.00;101602.63;4957607;28;20055;-57
2023/12/29 05:12:20;;;;;;;21.30;19.83;;;;;;;-2.68;100.00;101597.88;4955222;28;20058;-57
2023/12/29 05:14:48;;;;;;;21.42;19.92;;;;;;;-2.57;100.00;101598.00;4957637;28;20055;-56
2023/12/29 05:17:15;;;;;;;20.27;18.98;;;;;;;-2.84;100.00;101605.00;4958617;28;20059;-56
2023/12/29 05:19:42;;;;;;;19.92;18.73;;;;;;;-2.75;100.00;101604.41;4960465;28;20082;-56
2023/12/29 05:22:09;;;;;;;20.70;19.40;;;;;;;-2.87;100.00;101593.00;4958376;28;20528;-57
2023/12/29 05:24:36;;;;;;;18.75;17.60;;;;;;;-2.76;100.00;101595.75;4959972;28;20054;-57
2023/12/29 05:27:03;;;;;;;19.92;18.60;;;;;;;-2.71;100.00;101594.63;4965170;28;20047;-57
2023/12/29 05:29:30;;;;;;;21.63;19.95;;;;;;;-2.49;100.00;101600.09;4957272;28;20066;-57
2023/12/29 05:31:58;;;;;;;21.25;20.05;;;;;;;-2.30;100.00;101594.53;4955647;28;20051;-56
2023/12/29 05:34:25;;;;;;;21.98;20.55;;;;;;;-2.22;100.00;101594.84;4956104;28;20334;-56
2023/12/29 05:36:51;;;;;;;20.52;19.15;;;;;;;-2.39;100.00;101601.19;4953703;28;20063;-56
2023/12/29 05:39:19;;;;;;;19.15;18.05;;;;;;;-2.12;100.00;101608.94;4960150;28;20058;-57
2023/12/29 05:41:46;;;;;;;19.35;18.15;;;;;;;-2.11;100.00;101615.81;4951806;28;20057;-56
2023/12/29 05:44:13;;;;;;;20.65;19.35;;;;;;;-1.76;100.00;101604.78;4961591;28;20050;-55
2023/12/29 05:46:39;;;;;;;20.40;19.10;;;;;;;-2.26;100.00;101619.44;4955878;28;20465;-56
2023/12/29 05:49:08;;;;;;;20.10;18.83;;;;;;;-1.94;100.00;101612.06;4961779;28;20061;-56
2023/12/29 05:51:35;;;;;;;17.95;16.92;;;;;;;-2.07;100.00;101621.66;4959553;28;20054;-56
2023/12/29 05:54:02;;;;;;;17.95;16.92;;;;;;;-2.42;100.00;101621.34;4951896;28;20082;-56
2023/12/29 05:56:29;;;;;;;20.42;19.13;;;;;;;-2.40;100.00;101620.31;4964470;28;20497;-56
2023/12/29 05:58:55;;;;;;;21.98;20.58;;;;;;;-2.49;100.00;101614.88;4956960;28;20055;-56
2023/12/29 06:01:22;;;;;;;22.35;20.88;;;;;;;-2.40;100.00;101617.72;4960755;28;20053;-57
2023/12/29 06:03:49;;;;;;;21.25;19.80;;;;;;;-2.53;100.00;101619.47;4967301;28;20488;-56
2023/12/29 06:06:18;;;;;;;18.70;17.55;;;;;;;-2.48;100.00;101622.59;4959100;28;20452;-57
2023/12/29 06:08:44;;;;;;;20.02;18.70;;;;;;;-2.56;100.00;101617.88;4965785;28;20050;-56
2023/12/29 06:11:16;;;;;;;19.85;18.48;;;;;;;-2.50;100.00;101619.25;4961000;28;20674;-56
2023/12/29 06:13:42;;;;;;;18.00;17.00;;;;;;;-2.21;100.00;101614.78;4965172;28;20070;-58
2023/12/29 06:16:09;;;;;;;20.70;19.30;;;;;;;-1.79;100.00;101619.78;4960310;28;20051;-59
2023/12/29 06:18:36;;;;;;;23.63;19.63;;;;;;;-1.81;100.00;101619.91;4961513;28;20125;-56
2023/12/29 06:21:04;;;;;;;21.27;19.60;;;;;;;-1.72;100.00;101621.91;4961552;28;20054;-57
2023/12/29 06:23:32;;;;;;;20.38;19.17;;;;;;;-1.23;100.00;101610.69;4961060;28;20051;-56
2023/12/29 06:25:59;;;;;;;20.35;18.85;;;;;;;-1.28;100.00;101619.78;4961815;28;20055;-56
2023/12/29 06:28:26;;;;;;;19.90;18.50;;;;;;;-1.29;100.00;101623.31;4966317;28;20051;-57
2023/12/29 06:30:52;;;;;;;21.02;19.63;;;;;;;-1.31;100.00;101619.97;4962573;28;20080;-61
2023/12/29 06:33:21;;;;;;;24.40;22.33;;;;;;;-1.42;100.00;101623.34;4965182;28;20058;-56
2023/12/29 06:35:48;;;;;;;20.05;18.73;;;;;;;-0.96;100.00;101620.13;4958919;28;20051;-62
2023/12/29 06:38:16;;;;;;;22.30;20.80;;;;;;;-0.72;100.00;101623.59;4962580;28;20055;-62
2023/12/29 06:40:44;;;;;;;22.98;21.48;;;;;;;-0.61;100.00;101628.00;4963363;28;20051;-56
2023/12/29 06:43:11;;;;;;;23.70;22.05;;;;;;;-0.10;100.00;101629.53;4957003;28;20066;-56
2023/12/29 06:45:38;;;;;;;22.27;20.67;;;;;;;0.30;100.00;101629.13;4959622;28;20051;-58
2023/12/29 06:48:06;;;;;;;24.40;22.50;;;;;;;0.87;100.00;101625.59;4958647;28;20070;-58
2023/12/29 06:50:32;;;;;;;23.42;21.73;;;;;;;0.96;100.00;101635.31;4959446;28;20051;-58
2023/12/29 06:52:59;;;;;;;25.15;23.10;;;;;;;1.28;100.00;101626.72;4955825;28;20130;-58
2023/12/29 06:55:26;;;;;;;29.65;27.48;;;;;;;0.93;100.00;101627.72;4964717;28;20050;-57
2023/12/29 06:57:55;;;;;;;29.38;27.38;;;;;;;2.18;100.00;101628.91;4963981;28;20070;-58
2023/12/29 07:00:22;;;;;;;29.00;26.92;;;;;;;2.17;100.00;101632.50;4958799;28;20051;-58
2023/12/29 07:02:49;;;;;;;28.50;26.23;;;;;;;2.25;100.00;101625.66;4958413;28;20055;-58
2023/12/29 07:05:16;;;;;;;31.23;28.77;;;;;;;2.85;100.00;101625.81;4964153;28;20493;-58
2023/12/29 07:07:43;;;;;;;32.40;29.80;;;;;;;2.94;100.00;101625.00;4957073;28;20065;-58
2023/12/29 07:10:13;;;;;;;32.25;26.30;;;;;;;2.30;100.00;101622.66;4960506;28;20051;-64
2023/12/29 07:12:40;;;;;;;26.17;24.20;;;;;;;2.53;100.00;101633.81;4961654;28;20568;-58
2023/12/29 07:15:09;;;;;;;29.80;27.13;;;;;;;2.85;100.00;101623.19;4962785;28;20270;-64
2023/12/29 07:17:36;;;;;;;32.35;29.45;;;;;;;2.92;100.00;101623.47;4960004;28;20055;-58
2023/12/29 07:20:03;;;;;;;28.27;26.05;;;;;;;3.73;100.00;101616.25;4960018;28;20090;-58
2023/12/29 07:22:33;;;;;;;33.97;30.73;;;;;;;4.30;100.00;101614.50;4960866;28;20134;-58
2023/12/29 07:25:00;;;;;;;27.77;25.67;;;;;;;4.25;100.00;101611.44;4964453;28;20051;-61
2023/12/29 07:27:27;;;;;;;28.50;26.33;;;;;;;4.83;100.00;101608.59;4966473;28;20047;-57
2023/12/29 07:29:54;;;;;;;32.78;29.90;;;;;;;5.70;100.00;101611.63;4960141;28;20421;-63
2023/12/29 07:32:22;;;;;;;29.35;27.15;;;;;;;6.32;100.00;101604.47;4959440;28;20476;-58
2023/12/29 07:34:50;;;;;;;30.42;27.92;;;;;;;6.58;100.00;101606.28;4959046;28;20054;-63
2023/12/29 07:37:16;;;;;;;31.05;28.75;;;;;;;6.42;100.00;101601.75;4957938;28;20059;-58
2023/12/29 07:39:43;;;;;;;27.20;25.17;;;;;;;7.04;100.00;101604.97;4963768;28;20051;-64
2023/12/29 07:42:10;;;;;;;31.58;28.63;;;;;;;6.73;100.00;101602.06;4968297;28;20138;-62
2023/12/29 07:44:37;;;;;;;31.30;29.00;;;;;;;7.91;100.00;101591.34;4961859;28;20047;-58
2023/12/29 07:47:04;;;;;;;31.80;29.48;;;;;;;8.24;100.00;101589.47;4958934;28;20129;-63
2023/12/29 07:49:33;;;;;;;27.40;25.48;;;;;;;8.02;100.00;101591.00;4957891;28;20062;-56
2023/12/29 07:52:00;;;;;;;28.42;26.13;;;;;;;9.20;100.00;101590.22;4963839;28;20046;-63
2023/12/29 07:54:27;;;;;;;29.10;26.50;;;;;;;9.30;100.00;101599.63;4955559;28;20538;-56
2023/12/29 07:56:54;;;;;;;26.05;24.27;;;;;;;10.36;100.00;101591.75;4966622;28;20065;-56
2023/12/29 07:59:20;;;;;;;26.42;24.65;;;;;;;10.27;100.00;101597.16;4959162;28;20456;-58
2023/12/29 08:01:47;;;;;;;23.73;22.10;;;;;;;11.14;100.00;101592.94;4959420;28;20047;-64
2023/12/29 08:04:14;;;;;;;24.42;22.50;;;;;;;11.18;100.00;101588.88;4960801;28;20058;-63
2023/12/29 08:06:42;;;;;;;23.73;21.80;;;;;;;11.88;100.00;101590.75;4960770;28;20055;-63
2023/12/29 08:09:10;;;;;;;26.27;24.17;;;;;;;11.31;100.00;101599.63;4956869;28;20121;-63
2023/12/29 08:11:37;;;;;;;22.65;21.10;;;;;;;10.55;100.00;101599.16;4961082;28;20082;-60
2023/12/29 08:14:05;;;;;;;25.58;23.10;;;;;;;11.49;100.00;101603.69;4962196;28;20047;-62
2023/12/29 08:16:32;;;;;;;28.23;26.15;;;;;;;11.75;100.00;101611.13;4956674;28;20497;-62
2023/12/29 08:19:01;;;;;;;24.02;22.27;;;;;;;12.03;100.00;101609.31;4963804;28;20050;-62
2023/12/29 08:21:28;;;;;;;21.25;19.73;;;;;;;12.61;100.00;101615.19;4959781;28;20165;-58
2023/12/29 08:23:57;;;;;;;21.42;19.92;;;;;;;12.58;100.00;101612.09;4957454;28;20058;-63
2023/12/29 08:26:23;;;;;;;22.88;21.17;;;;;;;14.02;100.00;101613.69;4965941;28;20051;-63
2023/12/29 08:28:50;;;;;;;23.75;22.13;;;;;;;12.66;100.00;101619.94;4958905;28;20086;-59
2023/12/29 08:31:19;;;;;;;23.23;21.52;;;;;;;12.80;100.00;101620.84;4960632;28;20070;-56
2023/12/29 08:33:46;;;;;;;24.38;22.58;;;;;;;11.51;100.00;101615.00;4955007;28;20078;-57
2023/12/29 08:36:13;;;;;;;26.45;24.65;;;;;;;11.50;100.00;101627.47;4962521;28;20574;-61
2023/12/29 08:38:40;;;;;;;22.48;20.95;;;;;;;11.31;100.00;101630.72;4959960;28;20059;-61
2023/12/29 08:41:08;;;;;;;24.95;23.15;;;;;;;13.17;100.00;101626.72;4958621;28;20430;-58
2023/12/29 08:43:36;;;;;;;23.02;21.42;;;;;;;13.61;100.00;101631.53;4963127;28;20063;-56
2023/12/29 08:46:04;;;;;;;21.20;19.60;;;;;;;13.22;100.00;101629.59;4965293;28;20401;-57
2023/12/29 08:48:30;;;;;;;22.80;21.10;;;;;;;13.15;100.00;101631.41;4960502;28;20505;-57
2023/12/29 08:50:57;;;;;;;23.10;21.50;;;;;;;12.42;100.00;101639.09;4956103;28;20048;-57
2023/12/29 08:53:25;;;;;;;23.00;21.20;;;;;;;12.09;100.00;101635.16;4957134;28;20453;-57
2023/12/29 08:55:52;;;;;;;23.13;21.30;;;;;;;14.14;100.00;101634.22;4958838;28;20113;-57
2023/12/29 08:58:20;;;;;;;23.90;22.20;;;;;;;12.87;100.00;101651.00;4962876;28;20584;-57
2023/12/29 09:00:49;;;;;;;23.00;21.40;;;;;;;12.92;100.00;101648.59;4958223;28;20057;-57
2023/12/29 09:03:16;;;;;;;21.83;20.33;;;;;;;12.27;100.00;101645.34;4959216;28;20074;-57
2023/12/29 09:05:43;;;;;;;21.90;20.30;;;;;;;14.06;100.00;101638.97;4958243;28;20464;-56
2023/12/29 09:08:10;;;;;;;21.60;20.00;;;;;;;13.44;100.00;101636.47;4961719;28;20058;-56
2023/12/29 09:10:38;;;;;;;25.27;23.40;;;;;;;12.52;100.00;101637.69;4959451;28;20065;-57
2023/12/29 09:13:05;;;;;;;25.23;23.42;;;;;;;12.98;100.00;101644.28;4953815;28;20447;-57
2023/12/29 09:15:34;;;;;;;23.27;21.50;;;;;;;12.89;100.00;101648.97;4961505;28;20508;-57
2023/12/29 09:18:01;;;;;;;22.70;20.90;;;;;;;13.91;100.00;101645.31;4959440;28;20494;-56
2023/12/29 09:20:28;;;;;;;21.48;19.88;;;;;;;13.00;100.00;101651.06;4959559;28;20067;-57
2023/12/29 09:22:55;;;;;;;23.15;21.35;;;;;;;13.06;100.00;101633.44;4957526;28;20050;-57
2023/12/29 09:25:22;;;;;;;24.25;22.35;;;;;;;14.37;100.00;101633.78;4963562;28;20135;-57
2023/12/29 09:27:49;;;;;;;24.77;22.88;;;;;;;13.59;100.00;101636.28;4965833;28;20051;-57
2023/12/29 09:30:16;;;;;;;24.98;22.98;;;;;;;16.24;100.00;101620.16;4956014;28;20073;-56
2023/12/29 09:32:44;;;;;;;24.88;22.98;;;;;;;14.62;100.00;101625.94;4960303;28;20433;-57
2023/12/29 09:35:11;;;;;;;23.23;21.45;;;;;;;13.47;100.00;101633.38;4958010;28;20051;-56
2023/12/29 09:37:38;;;;;;;25.92;23.70;;;;;;;12.93;100.00;101626.22;4953234;28;20062;-57
2023/12/29 09:40:06;;;;;;;22.75;21.05;;;;;;;14.00;100.00;101613.06;4961773;28;20059;-57
2023/12/29 09:42:34;;;;;;;22.17;20.48;;;;;;;13.04;100.00;101622.13;4964363;28;20055;-56
2023/12/29 09:45:04;;;;;;;23.58;21.63;;;;;;;12.71;100.00;101614.00;4956970;28;20063;-57
2023/12/29 09:47:32;;;;;;;24.00;22.10;;;;;;;13.29;100.00;101611.81;4958018;28;20455;-57
2023/12/29 09:50:01;;;;;;;24.25;22.45;;;;;;;13.71;100.00;101613.28;4956910;28;20370;-57
2023/12/29 09:52:28;;;;;;;24.13;22.23;;;;;;;13.01;100.00;101610.06;4962170;28;20050;-57
2023/12/29 09:54:55;;;;;;;28.65;26.55;;;;;;;13.92;100.00;101603.44;4954151;28;20062;-57
2023/12/29 09:57:21;;;;;;;24.75;22.85;;;;;;;15.09;100.00;101604.34;4963405;28;20505;-57
2023/12/29 09:59:51;;;;;;;23.95;22.15;;;;;;;15.14;100.00;101603.72;4957481;28;20058;-57
2023/12/29 10:02:18;;;;;;;23.88;22.00;;;;;;;13.73;100.00;101597.88;4957571;28;20131;-57
2023/12/29 10:04:45;;;;;;;25.30;23.40;;;;;;;13.21;100.00;101601.28;4957007;28;20516;-56
2023/12/29 10:07:19;;;;;;;27.63;25.33;;;;;;;13.44;100.00;101591.09;4957425;28;20051;-57
2023/12/29 10:09:48;;;;;;;24.50;22.60;;;;;;;13.67;100.00;101588.00;4957508;28;20110;-57
2023/12/29 10:12:16;;;;;;;24.00;22.20;;;;;;;14.10;100.00;101590.28;4957955;28;20055;-57
2023/12/29 10:14:49;;;;;;;23.20;21.40;;;;;;;13.24;100.00;101588.34;4957299;28;20055;-57
2023/12/29 10:17:27;;;;;;;27.38;25.17;;;;;;;14.63;100.00;101587.47;4960647;28;20089;-56
2023/12/29 10:20:04;;;;;;;24.05;21.95;;;;;;;14.75;100.00;101574.25;4957271;28;20065;-61
2023/12/29 10:22:46;;;;;;;24.38;22.40;;;;;;;13.33;100.00;101583.69;4957401;28;20473;-57
2023/12/29 10:25:14;;;;;;;22.33;20.63;;;;;;;14.82;100.00;101566.19;4960203;28;20074;-57
2023/12/29 10:27:41;;;;;;;24.73;22.83;;;;;;;13.40;100.00;101563.16;4962175;28;20464;-62
2023/12/29 10:30:12;;;;;;;27.15;25.15;;;;;;;13.23;100.00;101568.03;4955619;28;20052;-62
2023/12/29 10:32:39;;;;;;;26.90;24.80;;;;;;;13.58;100.00;101557.22;4966156;28;20133;-56
2023/12/29 10:35:10;;;;;;;28.48;25.92;;;;;;;13.17;100.00;101560.03;4958408;28;20061;-63
2023/12/29 10:37:38;;;;;;;27.58;25.58;;;;;;;13.83;100.00;101553.91;4958792;28;20533;-62
2023/12/29 10:40:08;;;;;;;28.88;26.67;;;;;;;14.00;100.00;101547.13;4961347;28;20059;-62
2023/12/29 10:42:35;;;;;;;27.23;25.15;;;;;;;14.87;100.00;101545.81;4964079;28;20603;-57
2023/12/29 10:45:09;;;;;;;26.38;24.27;;;;;;;13.24;100.00;101544.84;4959115;28;20055;-57
2023/12/29 10:47:36;;;;;;;26.98;24.90;;;;;;;12.66;100.00;101544.50;4959836;28;20141;-57
2023/12/29 10:50:04;;;;;;;29.85;27.65;;;;;;;12.38;100.00;101543.56;4960468;28;20086;-57
2023/12/29 10:52:33;;;;;;;25.17;23.27;;;;;;;13.82;100.00;101536.25;4965624;28;20046;-57
2023/12/29 10:55:09;;;;;;;28.30;26.10;;;;;;;14.76;100.00;101534.97;4960445;28;20527;-57
2023/12/29 10:57:36;;;;;;;29.65;27.52;;;;;;;14.24;100.00;101523.44;4967135;28;20579;-58
2023/12/29 11:00:05;;;;;;;27.35;25.35;;;;;;;15.50;100.00;101522.75;4962947;28;20479;-57
2023/12/29 11:02:33;;;;;;;26.27;24.27;;;;;;;15.44;100.00;101519.09;4964947;28;20071;-57
2023/12/29 11:05:05;;;;;;;28.60;26.50;;;;;;;14.34;100.00;101518.47;4960599;28;20595;-62